Bowman, ND (58623)

9:43 AM MST on December 29, 2014 (GMT -0700)
ND Hwy 67 & 84th St SW | Change Station
CLOSE
Current Station
Personal Weather Station
Location: Scranton, ND
Elevation: 2900 ft
Nearby Weather Stations
Active Advisory: Wind Chill Advisory Active Notice: Public Information Statement

Elev 2900 ft 46.21 °N, 103.14 °W | Updated 14 minutes ago

Mostly Cloudy
Mostly Cloudy
-4.5 °F
Feels Like -20 °F
N
8.9
Wind Variable Wind from NNE

Today
High -- | Low -- °F
--% Chance of Precip.
Yesterday
High -- | Low -- °F
Precip. -- in
7:35 AM 4:15 PM
First Quarter, 60% visible
Pressure 30.78 in
Visibility 10.0 miles
Clouds Mostly Cloudy 8500 ft
Windchill -20 °F
Dew Point -7 °F
Humidity 89%
Rainfall 0.00 in
Snow Depth Not available.
UV 0 out of 12
Pollen .10 out of 12
Air Quality Not available.
Flu Activity Not available.
METAR KHEI 291553Z AUTO 36008KT 10SM BKN085 M21/M23 A3057 RMK AO2 SLP423 T12061233

More Conditions Fewer Conditions

Pressure 30.78 in
Visibility 10.0 miles
Clouds Mostly Cloudy 8500 ft
Windchill -20 °F
Dew Point -7 °F
Humidity 89%
Rainfall 0.00 in
Snow Depth Not available.
UV 0 out of 12
Pollen .10 out of 12
Air Quality Not available.
Flu Activity Not available.
METAR KHEI 291553Z AUTO 36008KT 10SM BKN085 M21/M23 A3057 RMK AO2 SLP423 T12061233

More Conditions Fewer Conditions

10-Day Weather Forecast

Almanac

Astronomy

Dec. 29, 2014 Rise Set
Actual Time
Civil Twilight
Nautical Twilight
Astronomical Twilight
Moon
Length of Visible Light
Length of Day
Tomorrow will be .
, % of the Moon is Illuminated

Today's Extremes

State Highs State Lows

Community

WunderPhotos

Upload Photos

1,781,648 photos uploaded!

WunderBlogs® & News

Nearby

Air Quality

  Air Quality AQ Index Pollutant
Not available.

Snow Depth

Station Depth Elevation

Earthquake Activity

City Distance Mag. Time & Date
Minimum magnitude displayed is 2.5.

Coastal Water Temperatures

Place Temperature

Nearby Weather Stations